Time;durP1;ratioP1;P1;durP2;ratioP2;P2;SDS_P1;SDS_P2;PMS_P1;PMS_P2;Temp;Humidity;BMP_temperature;BMP_pressure;BME280_temperature;BME280_humidity;BME280_pressure;Samples;Min_cycle;Max_cycle;Signal;HPM_P1;HPM_P2
2023/09/24 00:02:13;;;;;;;74.10;23.40;;;12.60;99.90;;;;;;4958852;28;20429;-79
2023/09/24 00:04:39;;;;;;;73.97;22.70;;;12.50;99.90;;;;;;4958760;28;20412;-79
2023/09/24 00:07:06;;;;;;;74.63;21.03;;;12.50;99.90;;;;;;4958703;28;20416;-78
2023/09/24 00:09:32;;;;;;;75.20;22.40;;;12.40;99.90;;;;;;4959121;28;20460;-78
2023/09/24 00:12:01;;;;;;;77.00;22.43;;;12.50;99.90;;;;;;4958356;28;20428;-79
2023/09/24 00:14:28;;;;;;;73.17;18.97;;;12.30;99.90;;;;;;4956822;29;20196;-78
2023/09/24 00:16:54;;;;;;;76.17;21.87;;;12.40;99.90;;;;;;4958663;28;20419;-78
2023/09/24 00:19:20;;;;;;;75.73;22.83;;;12.30;99.90;;;;;;4958642;28;20404;-79
2023/09/24 00:21:46;;;;;;;74.80;21.33;;;12.20;99.90;;;;;;4958497;28;20432;-79
2023/09/24 00:24:13;;;;;;;74.70;21.60;;;12.20;99.90;;;;;;4958372;28;20404;-78
2023/09/24 00:26:38;;;;;;;73.17;19.90;;;12.20;99.90;;;;;;4957974;28;20846;-78
2023/09/24 00:29:04;;;;;;;74.17;22.63;;;12.10;99.90;;;;;;4956845;29;20423;-78
2023/09/24 00:31:31;;;;;;;73.70;20.87;;;12.10;99.90;;;;;;4957024;28;20224;-79
2023/09/24 00:33:57;;;;;;;73.30;21.80;;;12.00;99.90;;;;;;4957704;28;20912;-78
2023/09/24 00:36:23;;;;;;;74.77;21.93;;;12.00;99.90;;;;;;4957311;28;20169;-78
2023/09/24 00:38:49;;;;;;;77.13;21.80;;;12.00;99.90;;;;;;4957549;28;20427;-78
2023/09/24 00:41:15;;;;;;;73.87;20.80;;;12.00;99.90;;;;;;4957738;28;20169;-78
2023/09/24 00:43:43;;;;;;;75.70;23.43;;;12.00;99.90;;;;;;4957517;28;20925;-78
2023/09/24 00:46:11;;;;;;;74.63;24.13;;;11.90;99.90;;;;;;4957081;28;20806;-78
2023/09/24 00:48:37;;;;;;;76.63;21.80;;;11.80;99.90;;;;;;4957653;28;20246;-78
2023/09/24 00:51:16;;;;;;;75.22;20.92;;;11.80;99.90;;;;;;4957107;28;20451;-78
2023/09/24 00:53:42;;;;;;;73.20;21.92;;;11.70;99.90;;;;;;4956032;29;20653;-78
2023/09/24 00:56:09;;;;;;;76.70;23.57;;;11.70;99.90;;;;;;4957065;28;20672;-78
2023/09/24 00:58:35;;;;;;;74.37;24.23;;;11.70;99.90;;;;;;4955713;29;20921;-78
2023/09/24 01:01:03;;;;;;;75.53;23.33;;;11.60;99.90;;;;;;4955649;28;20427;-78
2023/09/24 01:03:30;;;;;;;74.87;23.67;;;11.50;99.90;;;;;;4956821;28;20197;-78
2023/09/24 01:05:56;;;;;;;73.40;22.40;;;11.50;99.90;;;;;;4955762;29;20517;-78
2023/09/24 01:08:24;;;;;;;74.63;23.10;;;11.50;99.90;;;;;;4955776;29;20212;-78
2023/09/24 01:10:51;;;;;;;74.53;23.30;;;11.40;99.90;;;;;;4957435;28;20197;-78
2023/09/24 01:13:23;;;;;;;75.82;20.52;;;11.40;99.90;;;;;;4955628;28;20192;-78
2023/09/24 01:15:52;;;;;;;75.47;22.80;;;11.40;99.90;;;;;;4957443;28;20515;-78
2023/09/24 01:18:19;;;;;;;76.32;24.17;;;11.40;99.90;;;;;;4955561;29;20168;-78
2023/09/24 01:20:45;;;;;;;75.20;24.40;;;11.40;99.90;;;;;;4956362;29;20215;-78
2023/09/24 01:23:14;;;;;;;74.47;23.83;;;11.30;99.90;;;;;;4957252;28;20284;-78
2023/09/24 01:25:40;;;;;;;75.97;27.25;;;11.30;99.90;;;;;;4957227;28;20165;-78
2023/09/24 01:28:08;;;;;;;75.68;28.25;;;11.20;99.90;;;;;;4957538;28;20192;-78
2023/09/24 01:30:34;;;;;;;75.63;23.83;;;11.20;99.90;;;;;;4955495;29;20621;-78
2023/09/24 01:33:01;;;;;;;74.28;24.95;;;11.20;99.90;;;;;;4956912;28;20263;-79
2023/09/24 01:35:31;;;;;;;75.07;26.98;;;11.20;99.90;;;;;;4957344;28;20634;-79
2023/09/24 01:38:00;;;;;;;77.18;27.65;;;11.20;99.90;;;;;;4957094;28;20244;-78
2023/09/24 01:40:33;;;;;;;75.25;24.67;;;11.20;99.90;;;;;;4957271;28;20176;-78
2023/09/24 01:42:59;;;;;;;78.18;26.70;;;11.20;99.90;;;;;;4956907;28;20553;-79
2023/09/24 01:45:26;;;;;;;75.93;25.50;;;11.10;99.90;;;;;;4957443;28;20172;-79
2023/09/24 01:47:52;;;;;;;77.72;29.05;;;11.10;99.90;;;;;;4960123;28;20271;-78
2023/09/24 01:50:18;;;;;;;83.30;29.57;;;11.10;99.90;;;;;;4959515;29;20223;-78
2023/09/24 01:52:47;;;;;;;76.95;30.40;;;11.10;99.90;;;;;;4959667;28;20192;-79
2023/09/24 01:55:15;;;;;;;77.72;30.30;;;11.10;99.90;;;;;;4960822;28;20650;-79
2023/09/24 01:57:44;;;;;;;76.32;29.30;;;11.10;99.90;;;;;;4960695;28;20169;-78
2023/09/24 02:00:18;;;;;;;83.00;34.00;;;11.10;99.90;;;;;;4960675;28;20180;-78
2023/09/24 02:02:45;;;;;;;80.43;33.88;;;11.00;99.90;;;;;;4960584;28;20194;-79
2023/09/24 02:05:11;;;;;;;82.38;32.50;;;11.00;99.90;;;;;;4960671;28;20247;-78
2023/09/24 02:07:40;;;;;;;78.33;28.70;;;11.10;99.90;;;;;;4960662;28;20219;-78
2023/09/24 02:10:07;;;;;;;80.50;33.55;;;11.10;99.90;;;;;;4958858;29;20576;-80
2023/09/24 02:12:37;;;;;;;80.18;37.00;;;11.00;99.90;;;;;;4958818;28;20708;-78
2023/09/24 02:15:11;;;;;;;79.15;36.60;;;11.00;99.90;;;;;;4960089;28;20246;-80
2023/09/24 02:17:39;;;;;;;79.95;32.47;;;11.00;99.90;;;;;;4961379;28;20155;-80
2023/09/24 02:20:56;;;;;;;81.72;39.47;;;11.00;99.90;;;;;;4961157;28;20224;-80
2023/09/24 02:22:57;;;;;;;79.07;37.63;;;11.00;99.90;;;;;;4946784;28;20681;-80
2023/09/24 02:25:25;;;;;;;80.85;39.15;;;10.90;99.90;;;;;;4961473;28;20161;-80
2023/09/24 02:27:51;;;;;;;80.50;36.38;;;10.90;99.90;;;;;;4959592;29;20183;-80
2023/09/24 02:30:20;;;;;;;79.85;32.92;;;10.90;99.90;;;;;;4959633;29;20211;-80
2023/09/24 02:32:47;;;;;;;78.03;32.13;;;11.00;99.90;;;;;;4961234;28;20732;-80
2023/09/24 02:35:13;;;;;;;79.88;32.78;;;10.90;99.90;;;;;;4960948;28;20179;-80
2023/09/24 02:37:40;;;;;;;80.65;34.42;;;10.80;99.90;;;;;;4960971;28;20594;-80
2023/09/24 02:40:09;;;;;;;80.15;36.10;;;10.80;99.90;;;;;;4960411;28;20228;-78
2023/09/24 02:42:35;;;;;;;79.25;37.17;;;10.80;99.90;;;;;;4959595;28;20564;-78
2023/09/24 02:45:01;;;;;;;83.17;43.33;;;10.90;99.90;;;;;;4958583;29;20180;-78
2023/09/24 02:47:27;;;;;;;81.53;39.30;;;10.80;99.90;;;;;;4959935;28;20168;-78
2023/09/24 02:49:53;;;;;;;79.28;37.40;;;10.80;99.90;;;;;;4960516;28;20184;-78
2023/09/24 02:52:19;;;;;;;80.15;39.65;;;10.80;99.90;;;;;;4960145;28;20190;-79
2023/09/24 02:54:45;;;;;;;84.80;39.30;;;10.70;99.90;;;;;;4960009;28;20248;-78
2023/09/24 02:57:11;;;;;;;80.88;41.55;;;10.70;99.90;;;;;;4959544;28;20168;-78
2023/09/24 02:59:37;;;;;;;81.23;43.13;;;10.60;99.90;;;;;;4958708;28;20180;-79
2023/09/24 03:02:02;;;;;;;80.50;40.83;;;10.60;99.90;;;;;;4959410;28;20420;-79
2023/09/24 03:04:28;;;;;;;80.87;37.43;;;10.60;99.90;;;;;;4959661;28;20168;-78
2023/09/24 03:06:54;;;;;;;79.67;36.67;;;10.60;99.90;;;;;;4958025;29;20177;-78
2023/09/24 03:09:20;;;;;;;81.00;41.13;;;10.50;99.90;;;;;;4959059;28;20531;-78
2023/09/24 03:11:45;;;;;;;86.83;46.27;;;10.50;99.90;;;;;;4959522;28;20690;-78
2023/09/24 03:14:11;;;;;;;86.43;47.23;;;10.60;99.90;;;;;;4959719;28;20169;-78
2023/09/24 03:16:36;;;;;;;83.70;50.97;;;10.60;99.90;;;;;;4959282;28;20171;-79
2023/09/24 03:19:02;;;;;;;82.30;45.77;;;10.60;99.90;;;;;;4959471;28;20175;-78
2023/09/24 03:21:28;;;;;;;85.87;45.17;;;10.50;99.90;;;;;;4958001;28;20212;-78
2023/09/24 03:23:53;;;;;;;86.77;53.40;;;10.50;99.90;;;;;;4959822;28;20176;-78
2023/09/24 03:26:19;;;;;;;87.50;44.03;;;10.50;99.90;;;;;;4958139;29;20217;-79
2023/09/24 03:28:47;;;;;;;80.23;39.97;;;10.50;99.90;;;;;;4959269;28;20563;-78
2023/09/24 03:31:16;;;;;;;83.20;47.30;;;10.40;99.90;;;;;;4958652;28;20451;-78
2023/09/24 03:33:42;;;;;;;84.90;42.45;;;10.40;99.90;;;;;;4958736;28;20175;-78
2023/09/24 03:36:08;;;;;;;80.67;41.10;;;10.40;99.90;;;;;;4958625;28;20161;-78
2023/09/24 03:38:37;;;;;;;82.88;46.33;;;10.30;99.90;;;;;;4958576;28;20797;-78
2023/09/24 03:41:03;;;;;;;81.45;38.20;;;10.30;99.90;;;;;;4958273;28;20257;-78
2023/09/24 03:43:29;;;;;;;79.83;36.33;;;10.30;99.90;;;;;;4958239;28;20205;-78
2023/09/24 03:45:55;;;;;;;79.65;38.13;;;10.30;99.90;;;;;;4957224;29;20172;-78
2023/09/24 03:48:22;;;;;;;82.10;41.17;;;10.30;99.90;;;;;;4958669;28;20199;-78
2023/09/24 03:50:48;;;;;;;79.07;34.88;;;10.20;99.90;;;;;;4958281;28;20196;-78
2023/09/24 03:53:18;;;;;;;81.83;35.73;;;10.10;99.90;;;;;;4958543;28;20184;-78
2023/09/24 03:55:50;;;;;;;80.97;38.70;;;10.20;99.90;;;;;;4958250;28;20404;-78
2023/09/24 03:58:17;;;;;;;78.53;34.53;;;10.20;99.90;;;;;;4958448;28;20686;-78
2023/09/24 04:00:43;;;;;;;82.80;42.70;;;10.20;99.90;;;;;;4958319;28;20173;-78
2023/09/24 04:03:09;;;;;;;88.90;44.93;;;10.20;99.90;;;;;;4958212;28;20237;-78
2023/09/24 04:05:35;;;;;;;80.60;35.10;;;10.20;99.90;;;;;;4958234;28;20165;-78
2023/09/24 04:08:03;;;;;;;81.00;41.83;;;10.20;99.90;;;;;;4958271;28;20227;-78
2023/09/24 04:10:30;;;;;;;81.47;40.92;;;10.20;99.90;;;;;;4957585;28;20535;-78
2023/09/24 04:13:00;;;;;;;82.95;43.25;;;10.10;99.90;;;;;;4941331;29;20196;-78
2023/09/24 04:15:27;;;;;;;83.47;38.53;;;10.10;99.90;;;;;;4958150;28;20172;-80
2023/09/24 04:17:55;;;;;;;79.57;34.03;;;10.10;99.90;;;;;;4958415;29;20175;-80
2023/09/24 04:20:21;;;;;;;79.00;36.70;;;10.10;99.90;;;;;;4958841;28;20168;-78
2023/09/24 04:22:47;;;;;;;84.50;45.80;;;10.00;99.90;;;;;;4956159;28;20272;-77
2023/09/24 04:25:21;;;;;;;82.32;38.00;;;10.00;99.90;;;;;;4956644;28;20397;-80
2023/09/24 04:27:51;;;;;;;78.57;35.00;;;10.00;99.90;;;;;;4958358;29;20160;-80
2023/09/24 04:30:22;;;;;;;77.20;28.77;;;9.90;99.90;;;;;;4958935;28;20224;-80
2023/09/24 04:32:54;;;;;;;79.57;35.08;;;9.90;99.90;;;;;;4959276;28;20181;-80
2023/09/24 04:35:20;;;;;;;78.65;32.90;;;9.90;99.90;;;;;;4958557;28;20514;-80
2023/09/24 04:37:49;;;;;;;79.65;29.85;;;9.90;99.90;;;;;;4958987;28;20195;-80
2023/09/24 04:40:15;;;;;;;75.93;25.75;;;9.90;99.90;;;;;;4958594;28;20200;-80
2023/09/24 04:42:44;;;;;;;79.87;30.80;;;9.90;99.90;;;;;;4958640;28;20196;-81
2023/09/24 04:45:11;;;;;;;82.50;33.83;;;9.80;99.90;;;;;;4957765;29;20415;-80
2023/09/24 04:47:38;;;;;;;80.68;36.13;;;9.80;99.90;;;;;;4958820;28;20172;-80
2023/09/24 04:50:05;;;;;;;78.20;31.92;;;9.90;99.90;;;;;;4958893;28;20606;-80
2023/09/24 04:52:31;;;;;;;79.95;37.15;;;9.80;99.90;;;;;;4956874;28;20612;-81
2023/09/24 04:54:57;;;;;;;80.60;34.67;;;9.90;99.90;;;;;;4959266;28;20219;-80
2023/09/24 04:57:22;;;;;;;78.87;33.13;;;9.90;99.90;;;;;;4958803;28;20638;-80
2023/09/24 04:59:53;;;;;;;79.27;34.23;;;9.90;99.90;;;;;;4957212;29;20168;-81
2023/09/24 05:02:23;;;;;;;78.55;30.90;;;9.90;99.90;;;;;;4957177;28;20196;-80
2023/09/24 05:04:49;;;;;;;83.70;28.13;;;9.90;99.90;;;;;;4958320;28;20153;-80
2023/09/24 05:07:15;;;;;;;77.80;29.33;;;9.90;99.90;;;;;;4956741;29;20586;-80
2023/09/24 05:09:40;;;;;;;78.93;33.70;;;9.90;99.90;;;;;;4957591;28;20444;-80
2023/09/24 05:12:06;;;;;;;79.17;30.57;;;9.90;99.90;;;;;;4958121;28;20185;-80
2023/09/24 05:14:32;;;;;;;79.47;25.60;;;9.90;99.90;;;;;;4957763;28;20165;-80
2023/09/24 05:16:58;;;;;;;76.63;23.90;;;9.90;99.90;;;;;;4957310;28;20415;-80
2023/09/24 05:19:24;;;;;;;74.82;22.48;;;9.90;99.90;;;;;;4956565;29;20199;-80
2023/09/24 05:21:50;;;;;;;75.17;22.43;;;10.00;99.90;;;;;;4957220;28;20189;-80
2023/09/24 05:24:15;;;;;;;73.80;21.27;;;10.00;99.90;;;;;;4957349;28;20164;-80
2023/09/24 05:26:44;;;;;;;79.00;19.00;;;10.10;99.90;;;;;;4957736;28;20248;-80
2023/09/24 05:29:10;;;;;;;75.85;20.67;;;10.20;99.90;;;;;;4957875;28;20168;-80
2023/09/24 05:31:36;;;;;;;73.87;21.00;;;10.30;99.90;;;;;;4957618;28;20193;-80
2023/09/24 05:34:04;;;;;;;75.67;20.67;;;10.30;99.90;;;;;;4957263;28;20164;-80
2023/09/24 05:36:30;;;;;;;76.78;26.38;;;10.30;99.90;;;;;;4956022;29;20164;-80
2023/09/24 05:38:56;;;;;;;79.67;30.67;;;10.30;99.90;;;;;;4956228;29;20215;-80
2023/09/24 05:41:22;;;;;;;80.47;32.85;;;10.30;99.90;;;;;;4957664;28;20507;-80
2023/09/24 05:43:48;;;;;;;79.37;35.67;;;10.30;99.90;;;;;;4957195;28;20200;-80
2023/09/24 05:46:14;;;;;;;77.50;29.83;;;10.30;99.90;;;;;;4957509;28;20169;-80
2023/09/24 05:48:40;;;;;;;78.57;28.50;;;10.30;99.90;;;;;;4960659;28;20412;-80
2023/09/24 05:51:07;;;;;;;78.97;33.13;;;10.30;99.90;;;;;;4956254;28;21028;-81
2023/09/24 05:53:33;;;;;;;77.40;29.92;;;10.40;99.90;;;;;;4958157;28;20177;-80
2023/09/24 05:56:01;;;;;;;79.68;28.00;;;10.40;99.90;;;;;;4958234;28;20252;-80
2023/09/24 05:58:27;;;;;;;79.97;31.60;;;10.40;99.90;;;;;;4958077;28;20646;-80
2023/09/24 06:00:55;;;;;;;82.40;31.67;;;10.40;99.90;;;;;;4957620;28;20180;-80
2023/09/24 06:03:21;;;;;;;78.72;25.45;;;10.40;99.90;;;;;;4957268;28;20224;-80
2023/09/24 06:05:47;;;;;;;76.23;22.40;;;10.40;99.90;;;;;;4956043;29;20183;-79
2023/09/24 06:08:13;;;;;;;77.57;21.90;;;10.50;99.90;;;;;;4956395;29;20424;-80
2023/09/24 06:10:43;;;;;;;76.57;21.75;;;10.60;99.90;;;;;;4957124;28;20262;-80
2023/09/24 06:13:10;;;;;;;73.55;20.67;;;10.60;99.90;;;;;;4957669;28;20596;-80
2023/09/24 06:15:36;;;;;;;73.57;20.02;;;10.60;99.90;;;;;;4956148;29;20227;-80
2023/09/24 06:18:02;;;;;;;77.07;23.67;;;10.60;99.90;;;;;;4956997;28;20252;-80
2023/09/24 06:20:28;;;;;;;87.37;23.27;;;10.70;99.90;;;;;;4957287;28;20228;-80
2023/09/24 06:22:54;;;;;;;77.70;21.55;;;10.70;99.90;;;;;;4957156;28;20666;-80
2023/09/24 06:25:20;;;;;;;75.93;23.30;;;10.80;99.90;;;;;;4957436;28;20183;-80
2023/09/24 06:27:46;;;;;;;77.03;24.45;;;10.80;99.90;;;;;;4956759;28;20200;-80
2023/09/24 06:30:12;;;;;;;79.60;27.05;;;10.90;99.90;;;;;;4955699;29;20217;-80
2023/09/24 06:32:38;;;;;;;76.03;25.37;;;10.90;99.90;;;;;;4958219;28;20215;-79
2023/09/24 06:35:04;;;;;;;80.17;28.63;;;10.90;99.90;;;;;;4960213;28;20491;-79
2023/09/24 06:37:30;;;;;;;78.15;26.42;;;11.00;99.90;;;;;;4959450;29;20219;-79
2023/09/24 06:39:56;;;;;;;82.35;33.17;;;11.10;99.90;;;;;;4958896;29;20724;-79
2023/09/24 06:42:22;;;;;;;76.68;28.25;;;11.10;99.90;;;;;;4958345;28;20193;-79
2023/09/24 06:44:50;;;;;;;78.77;29.43;;;11.10;99.90;;;;;;4959909;28;20160;-79
2023/09/24 06:47:16;;;;;;;80.32;30.42;;;11.20;99.90;;;;;;4959816;28;20164;-79
2023/09/24 06:49:41;;;;;;;77.07;28.33;;;11.20;99.90;;;;;;4959991;28;20199;-79
2023/09/24 06:52:07;;;;;;;80.07;27.33;;;11.20;99.90;;;;;;4959503;28;20189;-79
2023/09/24 06:54:34;;;;;;;81.45;29.55;;;11.30;99.90;;;;;;4960457;28;20177;-79
2023/09/24 06:56:59;;;;;;;80.38;35.85;;;11.40;99.90;;;;;;4958819;29;20165;-79
2023/09/24 06:59:25;;;;;;;84.33;35.70;;;11.50;99.90;;;;;;4960869;28;20223;-79
2023/09/24 07:01:53;;;;;;;81.13;35.03;;;11.50;99.90;;;;;;4960100;28;20195;-79
2023/09/24 07:04:19;;;;;;;79.18;33.95;;;11.50;99.90;;;;;;4959420;28;20164;-79
2023/09/24 07:06:44;;;;;;;78.67;32.33;;;11.50;99.90;;;;;;4959427;28;20227;-79
2023/09/24 07:09:10;;;;;;;79.93;36.80;;;11.60;99.90;;;;;;4959353;28;20259;-78
2023/09/24 07:11:38;;;;;;;79.83;34.40;;;11.70;99.90;;;;;;4959098;28;20192;-79
2023/09/24 07:14:05;;;;;;;81.65;36.50;;;11.70;99.90;;;;;;4959257;28;20169;-78
2023/09/24 07:16:31;;;;;;;81.10;37.00;;;11.70;99.90;;;;;;4957983;29;20199;-79
2023/09/24 07:18:57;;;;;;;79.57;36.00;;;11.80;99.90;;;;;;4959523;28;20164;-79
2023/09/24 07:21:25;;;;;;;80.85;37.88;;;11.90;99.90;;;;;;4957443;28;20439;-79
2023/09/24 07:23:54;;;;;;;82.97;39.50;;;12.00;99.90;;;;;;4957576;29;20187;-79
2023/09/24 07:26:20;;;;;;;83.13;40.83;;;12.00;99.90;;;;;;4958965;28;20172;-79
2023/09/24 07:28:46;;;;;;;80.05;37.63;;;12.10;99.90;;;;;;4959106;28;20498;-79
2023/09/24 07:31:13;;;;;;;81.70;37.80;;;12.10;99.90;;;;;;4958815;28;20189;-79
2023/09/24 07:33:42;;;;;;;86.75;39.97;;;12.20;99.90;;;;;;4959256;28;20175;-79
2023/09/24 07:36:08;;;;;;;86.68;47.33;;;12.20;99.90;;;;;;4957501;29;20259;-79
2023/09/24 07:38:34;;;;;;;83.18;43.40;;;12.30;99.90;;;;;;4958372;28;20550;-79
2023/09/24 07:41:00;;;;;;;84.50;43.37;;;12.30;99.90;;;;;;4958543;28;20176;-79
2023/09/24 07:43:25;;;;;;;83.37;48.47;;;12.40;99.90;;;;;;4958937;28;20187;-79
2023/09/24 07:45:51;;;;;;;85.77;51.77;;;12.50;99.90;;;;;;4958269;28;20662;-79
2023/09/24 07:48:17;;;;;;;95.73;74.67;;;12.50;99.90;;;;;;4957249;29;20176;-79
2023/09/24 07:50:53;;;;;;;92.67;71.13;;;12.60;99.90;;;;;;4958356;28;20192;-79
2023/09/24 07:53:19;;;;;;;93.45;57.40;;;12.60;99.90;;;;;;4958835;28;20646;-79
2023/09/24 07:55:45;;;;;;;84.80;52.07;;;12.70;99.90;;;;;;4958882;28;20169;-79
2023/09/24 07:58:11;;;;;;;91.40;68.67;;;12.70;99.90;;;;;;4958642;28;20964;-78
2023/09/24 08:00:41;;;;;;;98.43;74.47;;;12.80;99.90;;;;;;4958385;28;20635;-79
2023/09/24 08:03:06;;;;;;;96.23;73.97;;;12.90;99.90;;;;;;4959047;28;20192;-79
2023/09/24 08:05:33;;;;;;;93.40;74.80;;;12.90;99.90;;;;;;4958920;28;20439;-78
2023/09/24 08:07:58;;;;;;;93.30;76.20;;;13.00;99.90;;;;;;4957217;29;20172;-79
2023/09/24 08:10:24;;;;;;;97.80;70.27;;;13.10;99.90;;;;;;4957976;28;20983;-79
2023/09/24 08:12:50;;;;;;;91.67;69.70;;;13.20;99.90;;;;;;4958014;28;20536;-79
2023/09/24 08:15:15;;;;;;;92.33;71.10;;;13.30;99.90;;;;;;4957926;28;20171;-79
2023/09/24 08:17:41;;;;;;;91.17;69.53;;;13.30;99.90;;;;;;4956820;29;20168;-79
2023/09/24 08:20:07;;;;;;;91.30;67.90;;;13.40;99.90;;;;;;4957381;28;20172;-79
2023/09/24 08:22:33;;;;;;;93.80;70.30;;;13.40;99.90;;;;;;4958037;28;20230;-79
2023/09/24 08:24:58;;;;;;;91.20;58.67;;;13.50;99.90;;;;;;4958617;28;20458;-79
2023/09/24 08:27:24;;;;;;;92.83;71.90;;;13.60;99.90;;;;;;4958135;28;20686;-79
2023/09/24 08:29:56;;;;;;;94.70;71.53;;;13.70;99.90;;;;;;4958000;28;20228;-79
2023/09/24 08:32:23;;;;;;;89.90;65.73;;;13.70;99.90;;;;;;4958059;28;20184;-79
2023/09/24 08:34:49;;;;;;;93.90;73.60;;;13.90;99.90;;;;;;4956497;29;20416;-79
2023/09/24 08:37:15;;;;;;;94.50;66.00;;;13.90;99.90;;;;;;4957588;28;20845;-79
2023/09/24 08:39:42;;;;;;;89.80;63.43;;;14.00;99.90;;;;;;4956558;29;20492;-79
2023/09/24 08:42:11;;;;;;;87.30;51.57;;;14.10;99.90;;;;;;4958144;28;20279;-78
2023/09/24 08:44:40;;;;;;;87.47;45.93;;;14.10;99.90;;;;;;4958604;28;20940;-78
2023/09/24 08:47:06;;;;;;;85.93;42.27;;;14.20;99.90;;;;;;4957792;28;20471;-79
2023/09/24 08:49:32;;;;;;;85.57;44.40;;;14.30;99.90;;;;;;4959066;28;20564;-79
2023/09/24 08:52:00;;;;;;;82.43;38.23;;;14.30;99.90;;;;;;4958032;28;20436;-79
2023/09/24 08:54:27;;;;;;;79.30;32.17;;;14.40;99.90;;;;;;4957900;28;20173;-79
2023/09/24 08:56:53;;;;;;;80.67;27.70;;;14.40;99.90;;;;;;4957487;28;20444;-79
2023/09/24 08:59:19;;;;;;;80.57;33.17;;;14.50;99.90;;;;;;4956171;29;20455;-79
2023/09/24 09:01:54;;;;;;;82.37;38.83;;;14.60;99.90;;;;;;4957887;28;20562;-80
2023/09/24 09:04:20;;;;;;;80.30;38.63;;;14.70;99.90;;;;;;4957310;28;20174;-79
2023/09/24 09:06:46;;;;;;;76.07;28.40;;;14.70;99.90;;;;;;4957200;28;20444;-79
2023/09/24 09:09:26;;;;;;;86.30;35.70;;;14.80;99.90;;;;;;4957165;28;20404;-79
2023/09/24 09:11:51;;;;;;;79.83;26.23;;;14.80;99.90;;;;;;4955685;28;20192;-79
2023/09/24 09:14:33;;;;;;;79.27;29.57;;;14.90;99.90;;;;;;4957343;28;20414;-79
2023/09/24 09:16:59;;;;;;;78.33;33.30;;;15.00;99.90;;;;;;4958326;28;20395;-79
2023/09/24 09:19:25;;;;;;;76.73;28.93;;;15.10;99.90;;;;;;4957562;28;20416;-80
2023/09/24 09:21:51;;;;;;;88.50;43.87;;;15.20;99.90;;;;;;4957883;28;20486;-82
2023/09/24 09:24:25;;;;;;;77.67;30.23;;;15.30;99.90;;;;;;4958096;28;20389;-82
2023/09/24 09:26:55;;;;;;;80.77;32.13;;;15.40;99.90;;;;;;4958755;28;20687;-81
2023/09/24 09:29:25;;;;;;;80.17;30.83;;;15.50;99.90;;;;;;4957484;29;20501;-82
2023/09/24 09:31:51;;;;;;;81.37;29.13;;;15.60;99.90;;;;;;4958435;28;20528;-82
2023/09/24 09:34:21;;;;;;;104.28;85.85;;;15.70;99.90;;;;;;4957630;28;20420;-81
2023/09/24 09:36:47;;;;;;;80.97;31.83;;;15.80;99.90;;;;;;4955917;29;20255;-81
2023/09/24 09:39:13;;;;;;;90.10;33.40;;;15.90;99.90;;;;;;4956823;28;20424;-81
2023/09/24 09:41:42;;;;;;;87.03;41.90;;;16.00;99.90;;;;;;4957264;28;20420;-81
2023/09/24 09:44:09;;;;;;;81.47;29.20;;;16.10;96.10;;;;;;4957207;28;20754;-81
2023/09/24 09:46:39;;;;;;;73.40;14.77;;;16.20;94.30;;;;;;4956639;28;20408;-82
2023/09/24 09:49:09;;;;;;;74.30;17.60;;;16.40;74.20;;;;;;4956498;28;20412;-82
2023/09/24 09:51:46;;;;;;;73.50;14.50;;;16.40;73.50;;;;;;4956325;28;20516;-82
2023/09/24 09:54:13;;;;;;;71.17;10.07;;;16.50;61.00;;;;;;4956811;28;20392;-82
2023/09/24 09:56:41;;;;;;;76.10;10.30;;;16.60;58.80;;;;;;4957131;28;20405;-82
2023/09/24 09:59:08;;;;;;;70.77;10.37;;;16.70;53.00;;;;;;4956230;28;20950;-82
2023/09/24 10:01:35;;;;;;;69.77;9.03;;;16.90;34.70;;;;;;4956041;28;20458;-82
2023/09/24 10:04:03;;;;;;;77.32;17.80;;;17.20;45.10;;;;;;4955903;28;20431;-82
2023/09/24 10:06:35;;;;;;;71.07;15.97;;;17.30;14.20;;;;;;4956194;28;20173;-82
2023/09/24 10:09:01;;;;;;;74.70;16.07;;;17.50;15.80;;;;;;4958183;29;20404;-82
2023/09/24 10:11:32;;;;;;;68.00;4.20;;;17.80;2.70;;;;;;4959638;28;20558;-82
2023/09/24 10:14:00;;;;;;;70.33;5.00;;;17.80;1.00;;;;;;4960097;29;20407;-82
2023/09/24 10:16:25;;;;;;;71.10;5.50;;;17.90;1.00;;;;;;4961481;28;20910;-82
2023/09/24 10:18:55;;;;;;;70.17;6.40;;;18.10;1.00;;;;;;4960169;29;20412;-82
2023/09/24 10:21:47;;;;;;;72.27;4.70;;;18.30;1.00;;;;;;4962885;28;20196;-82
2023/09/24 10:24:13;;;;;;;72.50;5.30;;;18.50;1.00;;;;;;4957612;29;20412;-82
2023/09/24 10:27:03;;;;;;;68.83;5.10;;;18.60;1.00;;;;;;4961446;29;20498;-82
2023/09/24 10:29:49;;;;;;;69.90;4.47;;;18.60;1.00;;;;;;4961226;28;20236;-83
2023/09/24 10:32:21;;;;;;;69.27;4.73;;;18.50;1.00;;;;;;4961084;28;20428;-82
2023/09/24 10:34:55;;;;;;;71.27;3.70;;;18.60;1.00;;;;;;4960182;29;20415;-82
2023/09/24 10:37:27;;;;;;;68.67;4.03;;;18.70;1.00;;;;;;4960128;29;20431;-82
2023/09/24 10:40:04;;;;;;;69.27;3.67;;;19.00;1.00;;;;;;4959929;29;20562;-82
2023/09/24 10:42:34;;;;;;;71.23;4.07;;;19.30;1.00;;;;;;4960629;28;20439;-83
2023/09/24 10:45:06;;;;;;;69.03;3.60;;;19.50;1.00;;;;;;4961508;28;20392;-82
2023/09/24 10:47:39;;;;;;;68.60;3.73;;;19.50;1.00;;;;;;4960182;29;20934;-82
2023/09/24 10:50:12;;;;;;;68.67;3.30;;;19.50;1.00;;;;;;4961099;28;20447;-82
2023/09/24 10:52:53;;;;;;;68.30;3.00;;;19.50;1.00;;;;;;4961595;28;20510;-83
2023/09/24 10:55:30;;;;;;;68.57;2.83;;;19.70;1.00;;;;;;4961551;29;20433;-82
2023/09/24 10:58:01;;;;;;;69.87;3.43;;;19.70;1.00;;;;;;4961308;29;20404;-82
2023/09/24 11:00:29;;;;;;;70.40;4.50;;;19.80;1.00;;;;;;4960131;29;20488;-82
2023/09/24 11:02:55;;;;;;;68.10;5.50;;;19.70;1.00;;;;;;4960761;28;20483;-82
2023/09/24 11:05:21;;;;;;;69.70;7.70;;;19.80;1.00;;;;;;4960502;28;20408;-82
2023/09/24 11:07:46;;;;;;;69.37;6.70;;;20.00;1.00;;;;;;4959594;28;20503;-82
2023/09/24 11:10:18;;;;;;;68.80;6.50;;;20.10;1.00;;;;;;4959686;29;20527;-82
2023/09/24 11:12:52;;;;;;;70.30;9.37;;;20.20;1.00;;;;;;4958077;28;20193;-82
2023/09/24 11:15:18;;;;;;;70.10;8.63;;;19.90;1.00;;;;;;4959381;28;20485;-82
2023/09/24 11:17:45;;;;;;;72.50;9.07;;;19.80;1.00;;;;;;4959677;28;20495;-82
2023/09/24 11:20:12;;;;;;;68.97;7.27;;;19.80;1.00;;;;;;4957067;28;20420;-82
2023/09/24 11:22:38;;;;;;;73.60;8.30;;;20.00;1.00;;;;;;4959403;28;20432;-82
2023/09/24 11:25:08;;;;;;;70.70;10.87;;;20.20;1.00;;;;;;4959428;29;20491;-82
2023/09/24 11:27:36;;;;;;;72.70;13.70;;;20.30;1.00;;;;;;4958355;29;20937;-82
2023/09/24 11:30:03;;;;;;;70.57;12.27;;;20.30;1.00;;;;;;4958109;29;20464;-82
2023/09/24 11:32:29;;;;;;;71.80;11.73;;;20.30;1.00;;;;;;4958136;28;20432;-82
2023/09/24 11:35:11;;;;;;;72.40;16.10;;;20.40;1.00;;;;;;4958128;29;20503;-81
2023/09/24 11:37:46;;;;;;;72.03;13.73;;;20.80;1.00;;;;;;4958376;29;20219;-82
2023/09/24 11:40:27;;;;;;;72.80;14.13;;;21.00;1.00;;;;;;4959700;28;20415;-81
2023/09/24 11:43:11;;;;;;;74.40;16.87;;;21.20;1.00;;;;;;4958151;28;20435;-82
2023/09/24 11:45:53;;;;;;;73.07;13.73;;;21.40;1.00;;;;;;4959073;28;20499;-82
2023/09/24 11:48:26;;;;;;;77.10;10.00;;;21.10;1.00;;;;;;4958085;29;20424;-81
2023/09/24 11:50:56;;;;;;;77.07;15.50;;;21.20;1.00;;;;;;4960300;28;20450;-82
2023/09/24 11:53:24;;;;;;;69.90;8.00;;;21.30;1.00;;;;;;4961388;28;20488;-82
2023/09/24 11:55:51;;;;;;;70.40;7.10;;;21.30;1.00;;;;;;4960668;28;20945;-83
2023/09/24 11:58:17;;;;;;;73.07;7.37;;;21.40;1.00;;;;;;4959039;29;20412;-82
2023/09/24 12:00:44;;;;;;;70.53;7.33;;;21.40;1.00;;;;;;4959844;29;20416;-82
2023/09/24 12:03:13;;;;;;;70.90;3.67;;;21.50;1.00;;;;;;4959604;28;20424;-82
2023/09/24 12:05:40;;;;;;;69.70;4.60;;;21.50;1.00;;;;;;4958752;29;20920;-82
2023/09/24 12:08:07;;;;;;;68.47;3.40;;;21.60;1.00;;;;;;4959342;29;20423;-82
2023/09/24 12:10:37;;;;;;;68.90;3.83;;;21.80;1.00;;;;;;4958725;29;20452;-82
2023/09/24 12:13:04;;;;;;;69.77;4.57;;;21.90;1.00;;;;;;4957787;28;20515;-83
2023/09/24 12:15:31;;;;;;;70.57;4.10;;;21.90;1.00;;;;;;4957759;29;20412;-83
2023/09/24 12:17:58;;;;;;;68.80;4.10;;;21.70;1.00;;;;;;4959654;28;20416;-82
2023/09/24 12:20:25;;;;;;;69.27;4.60;;;21.50;1.00;;;;;;4958616;29;20413;-82
2023/09/24 12:22:51;;;;;;;70.63;4.63;;;21.60;1.00;;;;;;4959344;28;20479;-82
2023/09/24 12:25:16;;;;;;;68.97;4.03;;;21.70;1.00;;;;;;4958950;29;20397;-82
2023/09/24 12:27:42;;;;;;;68.60;4.50;;;21.50;1.00;;;;;;4957985;29;20611;-82
2023/09/24 12:30:12;;;;;;;69.80;4.50;;;21.60;1.00;;;;;;4959420;28;20188;-82
2023/09/24 12:32:39;;;;;;;69.57;4.73;;;21.70;1.00;;;;;;4958183;28;20199;-82
2023/09/24 12:35:11;;;;;;;70.20;4.37;;;21.90;1.00;;;;;;4957827;29;20551;-82